createdAt,value
2019-05-10T00:00:19.654Z,16.00
2019-05-10T00:01:19.674Z,16.00
2019-05-10T00:02:19.632Z,16.00
2019-05-10T00:03:20.225Z,12.00
2019-05-10T00:04:19.613Z,12.00
2019-05-10T00:05:19.875Z,12.00
2019-05-10T00:06:19.594Z,12.00
2019-05-10T00:07:19.613Z,12.00
2019-05-10T00:08:19.587Z,12.00
2019-05-10T00:09:19.554Z,12.00
2019-05-10T00:10:19.560Z,12.00
2019-05-10T00:11:19.534Z,12.00
2019-05-10T00:12:19.811Z,12.00
2019-05-10T00:13:19.589Z,12.00
2019-05-10T00:14:19.501Z,12.00
2019-05-10T00:15:19.489Z,16.00
2019-05-10T00:16:19.483Z,16.00
2019-05-10T00:17:19.492Z,16.00
2019-05-10T00:18:19.472Z,16.00
2019-05-10T00:19:19.504Z,12.00
2019-05-10T00:20:19.433Z,16.00
2019-05-10T00:21:19.423Z,20.00
2019-05-10T00:22:19.425Z,16.00
2019-05-10T00:23:19.405Z,16.00
2019-05-10T00:24:19.673Z,16.00
2019-05-10T00:25:19.414Z,16.00
2019-05-10T00:26:20.020Z,16.00
2019-05-10T00:27:19.365Z,16.00
2019-05-10T00:28:19.351Z,16.00
2019-05-10T00:29:19.351Z,16.00
2019-05-10T00:30:19.332Z,16.00
2019-05-10T00:31:19.352Z,16.00
2019-05-10T00:32:19.308Z,16.00
2019-05-10T00:33:19.299Z,16.00
2019-05-10T00:34:19.288Z,16.00
2019-05-10T00:35:19.299Z,16.00
2019-05-10T00:36:19.552Z,16.00
2019-05-10T00:37:19.299Z,16.00
2019-05-10T00:38:19.249Z,16.00
2019-05-10T00:39:19.646Z,16.00
2019-05-10T00:40:19.221Z,16.00
2019-05-10T00:41:19.219Z,16.00
2019-05-10T00:42:19.208Z,16.00
2019-05-10T00:43:19.511Z,16.00
2019-05-10T00:44:19.182Z,16.00
2019-05-10T00:45:19.170Z,16.00
2019-05-10T00:46:19.160Z,16.00
2019-05-10T00:47:19.151Z,24.00
2019-05-10T00:48:19.141Z,16.00
2019-05-10T00:49:19.184Z,16.00
2019-05-10T00:50:19.422Z,16.00
2019-05-10T00:51:19.110Z,16.00
2019-05-10T00:52:19.124Z,16.00
2019-05-10T00:53:19.117Z,16.00
2019-05-10T00:54:19.110Z,16.00
2019-05-10T00:55:19.697Z,16.00
2019-05-10T00:56:19.059Z,16.00
2019-05-10T00:57:19.327Z,16.00
2019-05-10T00:58:19.040Z,16.00
2019-05-10T00:59:19.020Z,16.00
2019-05-10T01:00:19.011Z,16.00
2019-05-10T01:01:19.040Z,16.00
2019-05-10T01:02:19.019Z,16.00
2019-05-10T01:03:19.002Z,16.00
2019-05-10T01:04:19.290Z,16.00
2019-05-10T01:05:18.977Z,16.00
2019-05-10T01:06:19.002Z,16.00
2019-05-10T01:07:19.589Z,16.00
2019-05-10T01:08:19.007Z,16.00
2019-05-10T01:09:18.924Z,16.00
2019-05-10T01:10:18.939Z,16.00
2019-05-10T01:11:19.200Z,16.00
2019-05-10T01:12:19.671Z,16.00
2019-05-10T01:13:18.909Z,16.00
2019-05-10T01:14:18.869Z,16.00
2019-05-10T01:15:18.848Z,16.00
2019-05-10T01:16:18.839Z,16.00
2019-05-10T01:17:18.843Z,16.00
2019-05-10T01:18:19.099Z,16.00
2019-05-10T01:19:18.839Z,16.00
2019-05-10T01:20:18.797Z,16.00
2019-05-10T01:21:18.788Z,16.00
2019-05-10T01:22:18.782Z,16.00
2019-05-10T01:23:18.770Z,16.00
2019-05-10T01:24:18.758Z,16.00
2019-05-10T01:25:33.913Z,16.00
2019-05-10T01:26:19.735Z,16.00
2019-05-10T01:27:18.743Z,16.00
2019-05-10T01:28:18.719Z,16.00
2019-05-10T01:29:18.706Z,16.00
2019-05-10T01:30:18.694Z,16.00
2019-05-10T01:31:18.723Z,16.00
2019-05-10T01:32:18.957Z,16.00
2019-05-10T01:33:18.665Z,16.00
2019-05-10T01:34:18.647Z,16.00
2019-05-10T01:35:18.642Z,16.00
2019-05-10T01:36:18.627Z,16.00
2019-05-10T01:37:18.674Z,16.00
2019-05-10T01:38:18.622Z,16.00
2019-05-10T01:39:18.910Z,16.00
2019-05-10T01:40:18.604Z,16.00
2019-05-10T01:41:18.590Z,16.00
2019-05-10T01:42:18.581Z,16.00
2019-05-10T01:43:18.607Z,16.00
2019-05-10T01:44:18.560Z,16.00
2019-05-10T01:45:18.552Z,16.00
2019-05-10T01:46:18.829Z,16.00
2019-05-10T01:47:18.531Z,16.00
2019-05-10T01:48:18.526Z,16.00
2019-05-10T01:49:18.559Z,16.00
2019-05-10T01:50:18.512Z,16.00
2019-05-10T01:51:18.501Z,16.00
2019-05-10T01:52:18.488Z,16.00
2019-05-10T01:53:18.769Z,16.00
2019-05-10T01:54:18.467Z,16.00
2019-05-10T01:55:18.519Z,16.00
2019-05-10T01:56:18.551Z,16.00
2019-05-10T01:57:18.430Z,16.00
2019-05-10T01:58:18.429Z,16.00
2019-05-10T01:59:19.369Z,20.00
2019-05-10T02:01:39.788Z,20.00
2019-05-10T02:02:39.697Z,20.00
2019-05-10T02:03:39.705Z,16.00
2019-05-10T02:04:39.700Z,20.00
2019-05-10T02:05:39.682Z,16.00
2019-05-10T02:06:39.686Z,16.00
2019-05-10T02:07:39.976Z,20.00
2019-05-10T02:08:39.636Z,20.00
2019-05-10T02:09:39.651Z,16.00
2019-05-10T02:10:39.626Z,16.00
2019-05-10T02:11:39.616Z,16.00
2019-05-10T02:12:39.595Z,16.00
2019-05-10T02:13:39.616Z,16.00
2019-05-10T02:14:39.587Z,20.00
2019-05-10T02:15:39.567Z,20.00
2019-05-10T02:16:39.575Z,20.00
2019-05-10T02:17:39.553Z,20.00
2019-05-10T02:18:39.535Z,16.00
2019-05-10T02:19:40.795Z,20.00
2019-05-10T02:20:39.515Z,20.00
2019-05-10T02:21:39.498Z,20.00
2019-05-10T02:22:39.551Z,20.00
2019-05-10T02:23:39.491Z,20.00
2019-05-10T02:24:39.476Z,16.00
2019-05-10T02:25:39.512Z,20.00
2019-05-10T02:26:39.734Z,20.00
2019-05-10T02:27:39.444Z,20.00
2019-05-10T02:28:39.434Z,20.00
2019-05-10T02:29:39.415Z,20.00
2019-05-10T02:30:40.395Z,20.00
2019-05-10T02:31:39.427Z,20.00
2019-05-10T02:32:39.386Z,20.00
2019-05-10T02:33:39.674Z,20.00
2019-05-10T02:34:39.364Z,20.00
2019-05-10T02:35:39.355Z,20.00
2019-05-10T02:36:39.345Z,20.00
2019-05-10T02:37:39.374Z,20.00
2019-05-10T02:38:39.315Z,20.00
2019-05-10T02:39:39.311Z,20.00
2019-05-10T02:40:39.590Z,20.00
2019-05-10T02:41:39.293Z,20.00
2019-05-10T02:42:39.278Z,20.00
2019-05-10T02:43:39.304Z,20.00
2019-05-10T02:44:39.267Z,20.00
2019-05-10T02:45:40.015Z,20.00
2019-05-10T02:46:39.251Z,20.00
2019-05-10T02:47:39.521Z,20.00
2019-05-10T02:48:39.215Z,20.00
2019-05-10T02:49:39.239Z,20.00
2019-05-10T02:50:39.195Z,20.00
2019-05-10T02:51:39.183Z,20.00
2019-05-10T02:52:39.193Z,20.00
2019-05-10T02:53:39.159Z,20.00
2019-05-10T02:54:39.443Z,20.00
2019-05-10T02:55:39.172Z,20.00
2019-05-10T02:56:39.132Z,20.00
2019-05-10T02:57:39.121Z,20.00
2019-05-10T02:58:39.107Z,20.00
2019-05-10T02:59:39.101Z,20.00
2019-05-10T03:00:39.083Z,24.00
2019-05-10T03:01:39.112Z,24.00
2019-05-10T03:02:39.064Z,24.00
2019-05-10T03:03:39.057Z,24.00
2019-05-10T03:04:39.040Z,24.00
2019-05-10T03:05:39.893Z,24.00
2019-05-10T03:06:39.019Z,24.00
2019-05-10T03:07:40.161Z,24.00
2019-05-10T03:08:39.042Z,28.00
2019-05-10T03:09:38.989Z,28.00
2019-05-10T03:10:38.980Z,28.00
2019-05-10T03:11:38.970Z,24.00
2019-05-10T03:12:38.951Z,28.00
2019-05-10T03:13:39.491Z,32.00
2019-05-10T03:14:39.224Z,28.00
2019-05-10T03:15:38.935Z,32.00
2019-05-10T03:16:38.920Z,32.00
2019-05-10T03:17:38.899Z,32.00
2019-05-10T03:18:39.415Z,36.00
2019-05-10T03:19:38.921Z,24.00
2019-05-10T03:20:39.487Z,24.00
2019-05-10T03:21:39.142Z,28.00
2019-05-10T03:22:38.861Z,32.00
2019-05-10T03:23:38.865Z,36.00
2019-05-10T03:24:38.836Z,36.00
2019-05-10T03:25:38.849Z,40.00
2019-05-10T03:26:50.440Z,40.00
2019-05-10T03:27:39.797Z,44.00
2019-05-10T03:28:39.109Z,48.00
2019-05-10T03:29:38.779Z,56.00
2019-05-10T03:30:38.759Z,64.00
2019-05-10T03:31:38.790Z,68.00
2019-05-10T03:32:38.780Z,76.00
2019-05-10T03:33:38.752Z,80.00
2019-05-10T03:34:38.720Z,88.00
2019-05-10T03:35:39.019Z,96.00
2019-05-10T03:36:38.698Z,92.00
2019-05-10T03:37:39.367Z,100.00
2019-05-10T03:38:38.683Z,108.00
2019-05-10T03:39:38.668Z,116.00
2019-05-10T03:40:38.657Z,124.00
2019-05-10T03:41:38.639Z,124.00
2019-05-10T03:42:38.921Z,132.00
2019-05-10T03:43:38.657Z,140.00
2019-05-10T03:44:38.608Z,156.00
2019-05-10T03:45:38.599Z,164.00
2019-05-10T03:46:38.591Z,172.00
2019-05-10T03:47:38.589Z,180.00
2019-05-10T03:48:38.574Z,196.00
2019-05-10T03:49:39.750Z,208.00
2019-05-10T03:50:38.547Z,216.00
2019-05-10T03:51:38.536Z,224.00
2019-05-10T03:52:38.525Z,236.00
2019-05-10T03:53:38.548Z,244.00
2019-05-10T03:54:38.546Z,248.00
2019-05-10T03:55:38.679Z,256.00
2019-05-10T03:56:38.835Z,264.00
2019-05-10T03:57:38.494Z,276.00
2019-05-10T03:58:38.488Z,292.00
2019-05-10T03:59:38.505Z,316.00
2019-05-10T04:00:38.467Z,348.00
2019-05-10T04:01:38.483Z,372.00
2019-05-10T04:02:38.427Z,376.00
2019-05-10T04:03:39.543Z,388.00
2019-05-10T04:04:38.443Z,396.00
2019-05-10T04:05:38.442Z,400.00
2019-05-10T04:06:38.445Z,396.00
2019-05-10T04:07:38.432Z,424.00
2019-05-10T04:08:38.408Z,460.00
2019-05-10T04:09:38.359Z,472.00
2019-05-10T04:10:38.635Z,476.00
2019-05-10T04:11:38.373Z,540.00
2019-05-10T04:12:38.316Z,556.00
2019-05-10T04:13:38.348Z,560.00
2019-05-10T04:14:38.302Z,544.00
2019-05-10T04:15:38.287Z,576.00
2019-05-10T04:16:38.275Z,584.00
2019-05-10T04:17:38.557Z,564.00
2019-05-10T04:18:38.244Z,560.00
2019-05-10T04:19:38.282Z,616.00
2019-05-10T04:20:38.224Z,692.00
2019-05-10T04:21:38.231Z,836.00
2019-05-10T04:22:38.215Z,1008.00
2019-05-10T04:23:38.198Z,1236.00
2019-05-10T04:24:38.484Z,1256.00
2019-05-10T04:25:38.253Z,1184.00
2019-05-10T04:26:38.163Z,1096.00
2019-05-10T04:27:38.173Z,1120.00
2019-05-10T04:28:38.143Z,1052.00
2019-05-10T04:29:38.131Z,948.00
2019-05-10T04:30:38.112Z,796.00
2019-05-10T04:31:38.153Z,652.00
2019-05-10T04:32:38.093Z,536.00
2019-05-10T04:33:38.096Z,396.00
2019-05-10T04:34:38.083Z,336.00
2019-05-10T04:35:38.072Z,280.00
2019-05-10T04:36:39.016Z,284.00
2019-05-10T04:37:38.379Z,328.00
2019-05-10T04:38:38.035Z,384.00
2019-05-10T04:39:38.042Z,344.00
2019-05-10T04:40:38.015Z,348.00
2019-05-10T04:41:38.009Z,320.00
2019-05-10T04:42:37.992Z,312.00
2019-05-10T04:43:38.020Z,336.00
2019-05-10T04:44:37.964Z,340.00
2019-05-10T04:45:37.960Z,376.00
2019-05-10T04:46:38.149Z,356.00
2019-05-10T04:47:38.181Z,344.00
2019-05-10T04:48:37.931Z,368.00
2019-05-10T04:49:38.241Z,400.00
2019-05-10T04:50:38.485Z,432.00
2019-05-10T04:51:38.477Z,396.00
2019-05-10T04:52:37.880Z,368.00
2019-05-10T04:53:38.483Z,356.00
2019-05-10T04:54:37.861Z,328.00
2019-05-10T04:55:37.892Z,292.00
2019-05-10T04:56:37.840Z,320.00
2019-05-10T04:57:49.821Z,392.00
2019-05-10T04:58:38.822Z,512.00
2019-05-10T04:59:37.822Z,640.00
2019-05-10T05:00:37.810Z,788.00
2019-05-10T05:01:37.835Z,884.00
2019-05-10T05:02:37.781Z,748.00
2019-05-10T05:03:37.759Z,612.00
2019-05-10T05:04:37.750Z,516.00
2019-05-10T05:05:37.754Z,504.00
2019-05-10T05:06:37.739Z,608.00
2019-05-10T05:07:38.046Z,628.00
2019-05-10T05:08:37.736Z,700.00
2019-05-10T05:09:37.710Z,756.00
2019-05-10T05:10:37.716Z,768.00
2019-05-10T05:11:37.679Z,760.00
2019-05-10T05:12:37.668Z,768.00
2019-05-10T05:13:37.696Z,728.00
2019-05-10T05:14:37.938Z,732.00
2019-05-10T05:15:37.638Z,680.00
2019-05-10T05:16:37.633Z,680.00
2019-05-10T05:17:37.652Z,600.00
2019-05-10T05:18:37.608Z,464.00
2019-05-10T05:19:40.748Z,388.00
2019-05-10T05:20:37.641Z,348.00
2019-05-10T05:21:37.873Z,320.00
2019-05-10T05:22:37.584Z,316.00
2019-05-10T05:23:37.560Z,404.00
2019-05-10T05:24:37.537Z,556.00
2019-05-10T05:25:40.300Z,700.00
2019-05-10T05:26:37.535Z,864.00
2019-05-10T05:27:37.528Z,988.00
2019-05-10T05:28:37.846Z,1088.00
2019-05-10T05:29:37.488Z,1160.00
2019-05-10T05:30:38.906Z,1188.00
2019-05-10T05:31:37.508Z,1144.00
2019-05-10T05:32:38.532Z,1124.00
2019-05-10T05:33:38.456Z,1052.00
2019-05-10T05:34:37.426Z,912.00
2019-05-10T05:35:37.708Z,776.00
2019-05-10T05:36:37.429Z,608.00
2019-05-10T05:37:37.496Z,480.00
2019-05-10T05:38:40.441Z,388.00
2019-05-10T05:39:38.406Z,348.00
2019-05-10T05:40:37.388Z,404.00
2019-05-10T05:41:47.981Z,576.00
2019-05-10T05:42:38.438Z,832.00
2019-05-10T05:43:45.644Z,960.00
2019-05-10T05:44:38.327Z,1000.00
2019-05-10T05:45:37.316Z,944.00
2019-05-10T05:46:37.305Z,816.00
2019-05-10T05:47:41.827Z,672.00
2019-05-10T05:48:40.723Z,592.00
2019-05-10T05:49:37.275Z,484.00
2019-05-10T05:50:37.265Z,444.00
2019-05-10T05:51:37.315Z,436.00
2019-05-10T05:52:38.305Z,456.00
2019-05-10T05:53:42.137Z,496.00
2019-05-10T05:54:38.257Z,564.00
2019-05-10T05:55:37.924Z,604.00
2019-05-10T05:56:37.434Z,640.00
2019-05-10T05:57:37.205Z,672.00
2019-05-10T05:58:43.677Z,732.00
2019-05-10T05:59:38.174Z,852.00
2019-05-10T06:00:44.646Z,1020.00
2019-05-10T06:01:38.144Z,1072.00
2019-05-10T06:02:44.216Z,1060.00
2019-05-10T06:03:38.120Z,1036.00
2019-05-10T06:04:40.725Z,1068.00
2019-05-10T06:05:38.142Z,1308.00
2019-05-10T06:06:37.565Z,1788.00
2019-05-10T06:07:38.063Z,2512.00
2019-05-10T06:08:37.713Z,3128.00
2019-05-10T06:09:38.025Z,2800.00
2019-05-10T06:10:37.144Z,2436.00
2019-05-10T06:11:37.897Z,2080.00
2019-05-10T06:12:37.524Z,1948.00
2019-05-10T06:13:37.023Z,1888.00
2019-05-10T06:14:37.184Z,1780.00
2019-05-10T06:15:37.002Z,1560.00
2019-05-10T06:16:36.983Z,1368.00
2019-05-10T06:17:37.072Z,1424.00
2019-05-10T06:18:41.660Z,1516.00
2019-05-10T06:19:37.943Z,1620.00
2019-05-10T06:20:38.292Z,1820.00
2019-05-10T06:21:38.604Z,2056.00
2019-05-10T06:22:38.347Z,2280.00
2019-05-10T06:23:37.954Z,2604.00
2019-05-10T06:24:37.606Z,2416.00
2019-05-10T06:25:39.858Z,2324.00
2019-05-10T06:26:36.880Z,1952.00
2019-05-10T06:27:40.915Z,1640.00
2019-05-10T06:28:57.637Z,1504.00
2019-05-10T06:29:37.883Z,1256.00
2019-05-10T06:30:36.832Z,1076.00
2019-05-10T06:31:36.841Z,1012.00
2019-05-10T06:32:37.253Z,1024.00
2019-05-10T06:33:39.613Z,1024.00
2019-05-10T06:34:38.786Z,968.00
2019-05-10T06:35:36.809Z,904.00
2019-05-10T06:36:36.761Z,844.00
2019-05-10T06:37:36.768Z,852.00
2019-05-10T06:38:36.744Z,868.00
2019-05-10T06:39:37.128Z,900.00
2019-05-10T06:40:44.695Z,956.00
2019-05-10T06:41:37.748Z,904.00
2019-05-10T06:42:36.700Z,924.00
2019-05-10T06:43:36.709Z,1000.00
2019-05-10T06:44:36.697Z,1012.00
2019-05-10T06:45:36.689Z,1092.00
2019-05-10T06:46:36.672Z,1296.00
2019-05-10T06:47:42.168Z,1628.00
2019-05-10T06:48:37.738Z,1860.00
2019-05-10T06:49:41.057Z,2032.00
2019-05-10T06:50:37.619Z,2172.00
2019-05-10T06:51:36.607Z,2176.00
2019-05-10T06:52:36.669Z,2584.00
2019-05-10T06:53:42.276Z,3292.00
2019-05-10T06:54:37.600Z,3176.00
2019-05-10T06:55:36.566Z,3108.00
2019-05-10T06:56:37.499Z,2768.00
2019-05-10T06:57:36.910Z,2456.00
2019-05-10T06:58:38.443Z,2356.00
2019-05-10T06:59:37.399Z,2308.00
2019-05-10T07:00:38.249Z,2184.00
2019-05-10T07:01:38.122Z,2064.00
2019-05-10T07:02:37.545Z,2008.00
2019-05-10T07:03:36.523Z,1844.00
2019-05-10T07:04:40.977Z,1844.00
2019-05-10T07:05:36.530Z,1988.00
2019-05-10T07:06:36.449Z,2128.00
2019-05-10T07:07:44.192Z,1996.00
2019-05-10T07:08:44.157Z,1852.00
2019-05-10T07:10:01.768Z,1684.00
2019-05-10T07:10:37.472Z,1612.00
2019-05-10T07:11:36.407Z,1680.00
2019-05-10T07:12:36.475Z,1812.00
2019-05-10T07:13:40.541Z,1704.00
2019-05-10T07:14:45.073Z,1696.00
2019-05-10T07:15:42.286Z,1976.00
2019-05-10T07:16:37.577Z,2216.00
2019-05-10T07:17:41.192Z,1880.00
2019-05-10T07:18:37.341Z,2336.00
2019-05-10T07:19:41.978Z,2256.00
2019-05-10T07:20:37.317Z,2196.00
2019-05-10T07:21:38.890Z,1708.00
2019-05-10T07:22:37.763Z,1688.00
2019-05-10T07:23:38.967Z,1716.00
2019-05-10T07:24:37.806Z,1580.00
2019-05-10T07:25:37.703Z,1492.00
2019-05-10T07:26:37.785Z,1484.00
2019-05-10T07:27:38.298Z,1624.00
2019-05-10T07:28:36.645Z,1424.00
2019-05-10T07:29:43.297Z,1556.00
2019-05-10T07:30:41.432Z,1960.00
2019-05-10T07:31:36.456Z,1652.00
2019-05-10T07:32:36.192Z,1600.00
2019-05-10T07:33:37.183Z,1852.00
2019-05-10T07:34:36.903Z,2388.00
2019-05-10T07:35:37.490Z,2508.00
2019-05-10T07:36:36.125Z,2388.00
2019-05-10T07:37:36.104Z,2200.00
2019-05-10T07:38:36.125Z,1980.00
2019-05-10T07:39:36.737Z,1592.00
2019-05-10T07:40:36.590Z,1500.00
2019-05-10T07:41:36.735Z,1832.00
2019-05-10T07:42:39.831Z,1708.00
2019-05-10T07:43:37.064Z,1600.00
2019-05-10T07:44:36.502Z,1964.00
2019-05-10T07:45:36.065Z,2060.00
2019-05-10T07:46:40.247Z,1916.00
2019-05-10T07:47:37.007Z,1936.00
2019-05-10T07:48:41.327Z,2368.00
2019-05-10T07:49:36.988Z,2316.00
2019-05-10T07:50:36.073Z,2504.00
2019-05-10T07:51:36.022Z,2848.00
2019-05-10T07:52:36.245Z,2708.00
2019-05-10T07:53:36.977Z,2472.00
2019-05-10T07:54:37.385Z,3220.00
2019-05-10T07:55:36.962Z,3568.00
2019-05-10T07:56:38.809Z,3652.00
2019-05-10T07:57:36.953Z,4160.00
2019-05-10T07:58:38.283Z,4032.00
2019-05-10T07:59:49.613Z,3804.00
2019-05-10T08:00:38.042Z,4132.00
2019-05-10T08:01:36.864Z,4252.00
2019-05-10T08:02:35.842Z,4668.00
2019-05-10T08:03:44.313Z,4520.00
2019-05-10T08:04:38.421Z,4376.00
2019-05-10T08:05:35.817Z,4288.00
2019-05-10T08:06:44.095Z,3944.00
2019-05-10T08:07:38.757Z,3696.00
2019-05-10T08:08:35.782Z,3740.00
2019-05-10T08:09:37.170Z,4484.00
2019-05-10T08:10:39.241Z,5752.00
2019-05-10T08:11:35.754Z,5744.00
2019-05-10T08:12:41.475Z,6104.00
2019-05-10T08:13:39.178Z,5848.00
2019-05-10T08:14:35.712Z,5676.00
2019-05-10T08:15:35.741Z,5796.00
2019-05-10T08:16:35.698Z,6020.00
2019-05-10T08:17:41.133Z,6516.00
2019-05-10T08:18:36.673Z,6640.00
2019-05-10T08:19:37.588Z,6372.00
2019-05-10T08:20:46.523Z,6284.00
2019-05-10T08:21:36.710Z,6676.00
2019-05-10T08:22:41.421Z,7104.00
2019-05-10T08:23:36.611Z,7612.00
2019-05-10T08:24:35.682Z,7744.00
2019-05-10T08:25:41.032Z,7140.00
2019-05-10T08:26:36.586Z,6672.00
2019-05-10T08:27:35.607Z,7208.00
2019-05-10T08:28:37.898Z,7172.00
2019-05-10T08:29:35.550Z,6696.00
2019-05-10T08:30:35.700Z,7404.00
2019-05-10T08:31:40.707Z,8184.00
2019-05-10T08:32:36.557Z,8396.00
2019-05-10T08:33:35.514Z,8564.00
2019-05-10T08:34:39.228Z,8220.00
2019-05-10T08:35:38.746Z,8740.00
2019-05-10T08:36:37.154Z,9756.00
2019-05-10T08:37:38.069Z,10516.00
2019-05-10T08:38:39.713Z,11224.00
2019-05-10T08:39:45.239Z,12180.00
2019-05-10T08:40:38.146Z,11904.00
2019-05-10T08:41:35.437Z,11312.00
2019-05-10T08:42:44.234Z,10700.00
2019-05-10T08:43:38.994Z,11628.00
2019-05-10T08:44:36.409Z,10384.00
2019-05-10T08:45:38.645Z,9736.00
2019-05-10T08:46:41.235Z,9504.00
2019-05-10T08:47:36.359Z,9876.00
2019-05-10T08:48:38.010Z,9432.00
2019-05-10T08:49:54.069Z,9812.00
2019-05-10T08:50:49.622Z,7884.00
2019-05-10T08:51:43.746Z,7572.00
2019-05-10T08:52:36.870Z,8452.00
2019-05-10T08:53:35.878Z,8616.00
2019-05-10T08:54:36.137Z,7588.00
2019-05-10T08:55:35.329Z,6548.00
2019-05-10T08:56:35.568Z,5000.00
2019-05-10T08:57:43.402Z,4368.00
2019-05-10T08:58:38.938Z,6096.00
2019-05-10T08:59:37.908Z,7724.00
2019-05-10T09:00:49.324Z,8588.00
2019-05-10T09:01:44.810Z,7908.00
2019-05-10T09:02:36.199Z,7596.00
2019-05-10T09:03:35.687Z,7140.00
2019-05-10T09:04:43.663Z,6440.00
2019-05-10T09:05:39.640Z,6108.00
2019-05-10T09:06:35.168Z,6364.00
2019-05-10T09:07:39.038Z,6988.00
2019-05-10T09:08:35.155Z,7912.00
2019-05-10T09:09:45.794Z,8552.00
2019-05-10T09:10:36.119Z,9040.00
2019-05-10T09:11:35.120Z,8716.00
2019-05-10T09:12:35.107Z,8992.00
2019-05-10T09:13:40.963Z,9084.00
2019-05-10T09:14:36.098Z,9024.00
2019-05-10T09:15:35.541Z,8372.00
2019-05-10T09:16:43.506Z,7932.00
2019-05-10T09:17:36.065Z,8056.00
2019-05-10T09:18:38.107Z,8276.00
2019-05-10T09:19:41.011Z,8416.00
2019-05-10T09:20:36.053Z,8340.00
2019-05-10T09:21:35.082Z,8408.00
2019-05-10T09:22:38.650Z,8228.00
2019-05-10T09:23:35.046Z,7940.00
2019-05-10T09:24:43.255Z,7516.00
2019-05-10T09:25:36.776Z,7132.00
2019-05-10T09:26:34.991Z,6784.00
2019-05-10T09:27:35.025Z,6292.00
2019-05-10T09:28:34.933Z,5808.00
2019-05-10T09:29:37.366Z,5380.00
2019-05-10T09:30:35.564Z,4868.00
2019-05-10T09:31:39.358Z,4440.00
2019-05-10T09:32:35.917Z,4136.00
2019-05-10T09:33:34.910Z,3920.00
2019-05-10T09:34:35.729Z,3776.00
2019-05-10T09:35:38.926Z,3608.00
2019-05-10T09:36:36.429Z,3684.00
2019-05-10T09:37:34.836Z,3768.00
2019-05-10T09:38:39.275Z,3564.00
2019-05-10T09:39:35.845Z,3684.00
2019-05-10T09:40:34.806Z,3888.00
2019-05-10T09:41:38.197Z,4180.00
2019-05-10T09:42:40.018Z,4596.00
2019-05-10T09:43:40.583Z,4748.00
2019-05-10T09:44:36.369Z,5132.00
2019-05-10T09:45:35.398Z,5584.00
2019-05-10T09:46:34.769Z,6036.00
2019-05-10T09:47:34.756Z,5692.00
2019-05-10T09:48:34.776Z,4832.00
2019-05-10T09:49:35.074Z,4408.00
2019-05-10T09:50:41.025Z,4232.00
2019-05-10T09:51:35.715Z,3964.00
2019-05-10T09:52:34.685Z,3720.00
2019-05-10T09:53:34.807Z,3664.00
2019-05-10T09:54:34.720Z,3792.00
2019-05-10T09:55:36.889Z,4104.00
2019-05-10T09:56:39.525Z,4384.00
2019-05-10T09:57:38.014Z,4752.00
2019-05-10T09:58:35.072Z,5364.00
2019-05-10T09:59:36.865Z,5916.00
2019-05-10T10:00:37.944Z,6360.00
2019-05-10T10:01:36.990Z,6980.00
2019-05-10T10:02:37.358Z,7640.00
2019-05-10T10:03:43.214Z,8504.00
2019-05-10T10:04:37.213Z,9700.00
2019-05-10T10:05:39.792Z,11512.00
2019-05-10T10:06:36.912Z,13896.00
2019-05-10T10:07:34.545Z,16052.00
2019-05-10T10:08:34.530Z,18336.00
2019-05-10T10:09:42.452Z,29792.00
2019-05-10T10:10:37.126Z,26720.00
2019-05-10T10:11:34.499Z,29344.00
2019-05-10T10:12:37.070Z,30656.00
2019-05-10T10:13:43.073Z,26400.00
2019-05-10T10:14:39.316Z,45952.00
2019-05-10T10:15:37.297Z,25056.00
2019-05-10T10:16:34.904Z,28256.00
2019-05-10T10:17:40.158Z,63616.00
2019-05-10T10:18:37.145Z,58976.00
2019-05-10T10:19:34.389Z,37088.00
2019-05-10T10:20:38.270Z,18944.00
2019-05-10T10:21:38.972Z,36256.00
2019-05-10T10:22:34.445Z,19808.00
2019-05-10T10:23:37.249Z,13096.00
2019-05-10T10:24:37.810Z,18176.00
2019-05-10T10:25:40.342Z,16244.00
2019-05-10T10:26:37.461Z,9192.00
2019-05-10T10:27:36.088Z,6004.00
2019-05-10T10:28:37.221Z,4300.00
2019-05-10T10:29:36.546Z,3552.00
2019-05-10T10:30:37.102Z,3768.00
2019-05-10T10:31:48.396Z,4428.00
2019-05-10T10:32:37.638Z,5096.00
2019-05-10T10:33:37.763Z,5584.00
2019-05-10T10:34:38.581Z,5812.00
2019-05-10T10:35:37.923Z,5968.00
2019-05-10T10:36:40.377Z,6208.00
2019-05-10T10:37:37.660Z,6276.00
2019-05-10T10:38:37.032Z,6160.00
2019-05-10T10:39:37.184Z,6016.00
2019-05-10T10:40:41.626Z,5756.00
2019-05-10T10:41:38.172Z,5408.00
2019-05-10T10:42:34.152Z,5344.00
2019-05-10T10:43:37.065Z,5176.00
2019-05-10T10:44:37.091Z,4948.00
2019-05-10T10:45:34.123Z,4812.00
2019-05-10T10:46:34.845Z,4784.00
2019-05-10T10:47:34.550Z,4872.00
2019-05-10T10:48:34.122Z,4808.00
2019-05-10T10:49:34.091Z,4796.00
2019-05-10T10:50:34.095Z,5388.00
2019-05-10T10:51:34.700Z,5900.00
2019-05-10T10:52:34.573Z,6332.00
2019-05-10T10:53:34.080Z,7040.00
2019-05-10T10:54:37.536Z,7752.00
2019-05-10T10:55:39.411Z,8524.00
2019-05-10T10:56:37.300Z,9244.00
2019-05-10T10:57:34.027Z,9880.00
2019-05-10T10:58:33.982Z,10184.00
2019-05-10T10:59:34.011Z,10204.00
2019-05-10T11:00:34.525Z,10328.00
2019-05-10T11:01:47.195Z,10360.00
2019-05-10T11:02:34.988Z,10452.00
2019-05-10T11:03:33.976Z,10408.00
2019-05-10T11:04:40.426Z,10088.00
2019-05-10T11:05:34.954Z,9444.00
2019-05-10T11:06:33.905Z,8632.00
2019-05-10T11:07:38.131Z,8200.00
2019-05-10T11:08:34.865Z,8184.00
2019-05-10T11:09:33.861Z,8616.00
2019-05-10T11:10:33.841Z,8948.00
2019-05-10T11:11:38.733Z,9580.00
2019-05-10T11:12:35.113Z,10532.00
2019-05-10T11:13:45.399Z,10988.00
2019-05-10T11:14:39.878Z,11564.00
2019-05-10T11:15:36.631Z,12052.00
2019-05-10T11:16:33.787Z,11316.00
2019-05-10T11:17:34.811Z,10716.00
2019-05-10T11:18:33.941Z,10056.00
2019-05-10T11:19:36.571Z,8704.00
2019-05-10T11:20:35.633Z,7788.00
2019-05-10T11:21:33.759Z,7176.00
2019-05-10T11:22:35.072Z,7544.00
2019-05-10T11:23:44.647Z,8152.00
2019-05-10T11:24:34.551Z,9008.00
2019-05-10T11:25:34.070Z,10480.00
2019-05-10T11:26:36.715Z,12524.00
2019-05-10T11:27:34.376Z,14856.00
2019-05-10T11:28:38.548Z,18112.00
2019-05-10T11:29:35.150Z,41696.00
2019-05-10T11:30:34.023Z,28384.00
2019-05-10T11:31:33.630Z,73760.00
2019-05-10T11:32:34.151Z,22304.00
2019-05-10T11:33:33.959Z,80448.00
2019-05-10T11:34:37.315Z,78016.00
2019-05-10T11:35:34.700Z,69088.00
2019-05-10T11:36:34.199Z,56608.00
2019-05-10T11:37:36.352Z,72928.00
2019-05-10T11:38:33.574Z,74848.00
2019-05-10T11:39:41.938Z,80704.00
2019-05-10T11:40:35.511Z,81792.00
2019-05-10T11:41:34.038Z,83136.00
2019-05-10T11:42:37.347Z,80992.00
2019-05-10T11:43:34.923Z,80864.00
2019-05-10T11:44:33.563Z,54080.00
2019-05-10T11:45:35.313Z,16952.00
2019-05-10T11:46:33.587Z,31136.00
2019-05-10T11:47:35.512Z,81824.00
2019-05-10T11:48:37.424Z,61760.00
2019-05-10T11:49:34.982Z,17696.00
2019-05-10T11:50:36.997Z,15720.00
2019-05-10T11:51:37.865Z,11628.00
2019-05-10T11:52:36.329Z,11328.00
2019-05-10T11:53:33.511Z,17056.00
2019-05-10T11:54:33.392Z,30880.00
2019-05-10T11:55:39.817Z,14952.00
2019-05-10T11:56:36.545Z,40608.00
2019-05-10T11:57:34.535Z,29952.00
2019-05-10T11:58:37.451Z,52384.00
2019-05-10T11:59:38.649Z,16112.00
2019-05-10T12:00:36.288Z,13664.00
2019-05-10T12:01:33.452Z,12628.00
2019-05-10T12:02:38.760Z,10700.00
2019-05-10T12:03:34.737Z,11668.00
2019-05-10T12:04:39.131Z,21728.00
2019-05-10T12:05:35.204Z,38688.00
2019-05-10T12:06:33.480Z,18720.00
2019-05-10T12:07:40.362Z,18048.00
2019-05-10T12:08:34.488Z,21792.00
2019-05-10T12:09:33.568Z,30912.00
2019-05-10T12:10:33.325Z,20320.00
2019-05-10T12:11:39.762Z,22112.00
2019-05-10T12:12:50.139Z,13808.00
2019-05-10T12:13:34.199Z,64800.00
2019-05-10T12:14:33.597Z,39552.00
2019-05-10T12:15:34.017Z,59488.00
2019-05-10T12:16:33.789Z,18176.00
2019-05-10T12:17:34.252Z,22080.00
2019-05-10T12:18:36.294Z,19104.00
2019-05-10T12:19:36.843Z,13792.00
2019-05-10T12:20:54.116Z,13784.00
2019-05-10T12:21:35.412Z,11952.00